sensor_id;sensor_type;location;lat;lon;timestamp;P1;durP1;ratioP1;P2;durP2;ratioP2
75823;SDS011;64457;51.976;9.834;2024-03-25T00:02:18;9.40;;;2.27;;
75823;SDS011;64457;51.976;9.834;2024-03-25T00:04:46;7.57;;;2.20;;
75823;SDS011;64457;51.976;9.834;2024-03-25T00:07:13;10.83;;;3.17;;
75823;SDS011;64457;51.976;9.834;2024-03-25T00:09:40;3.37;;;2.00;;
75823;SDS011;64457;51.976;9.834;2024-03-25T00:12:07;7.17;;;2.40;;
75823;SDS011;64457;51.976;9.834;2024-03-25T00:14:35;2.87;;;2.30;;
75823;SDS011;64457;51.976;9.834;2024-03-25T00:17:04;4.63;;;2.17;;
75823;SDS011;64457;51.976;9.834;2024-03-25T00:19:31;5.40;;;2.80;;
75823;SDS011;64457;51.976;9.834;2024-03-25T00:22:00;6.90;;;2.70;;
75823;SDS011;64457;51.976;9.834;2024-03-25T00:24:26;17.00;;;2.47;;
75823;SDS011;64457;51.976;9.834;2024-03-25T00:26:53;9.30;;;2.80;;
75823;SDS011;64457;51.976;9.834;2024-03-25T00:29:20;9.77;;;2.67;;
75823;SDS011;64457;51.976;9.834;2024-03-25T00:31:47;6.90;;;2.77;;
75823;SDS011;64457;51.976;9.834;2024-03-25T00:34:14;7.00;;;2.37;;
75823;SDS011;64457;51.976;9.834;2024-03-25T00:36:41;6.93;;;2.97;;
75823;SDS011;64457;51.976;9.834;2024-03-25T00:39:09;11.77;;;2.83;;
75823;SDS011;64457;51.976;9.834;2024-03-25T00:41:37;7.27;;;2.60;;
75823;SDS011;64457;51.976;9.834;2024-03-25T00:44:03;4.47;;;2.27;;
75823;SDS011;64457;51.976;9.834;2024-03-25T00:46:31;5.40;;;2.17;;
75823;SDS011;64457;51.976;9.834;2024-03-25T00:48:57;8.00;;;2.30;;
75823;SDS011;64457;51.976;9.834;2024-03-25T00:51:25;8.70;;;2.70;;
75823;SDS011;64457;51.976;9.834;2024-03-25T00:53:51;5.53;;;2.00;;
75823;SDS011;64457;51.976;9.834;2024-03-25T00:56:20;7.83;;;2.53;;
75823;SDS011;64457;51.976;9.834;2024-03-25T00:58:46;4.93;;;2.03;;
75823;SDS011;64457;51.976;9.834;2024-03-25T01:01:14;9.80;;;2.63;;
75823;SDS011;64457;51.976;9.834;2024-03-25T01:03:40;7.00;;;2.73;;
75823;SDS011;64457;51.976;9.834;2024-03-25T01:06:08;4.83;;;1.93;;
75823;SDS011;64457;51.976;9.834;2024-03-25T01:08:34;7.40;;;2.17;;
75823;SDS011;64457;51.976;9.834;2024-03-25T01:11:02;13.00;;;2.20;;
75823;SDS011;64457;51.976;9.834;2024-03-25T01:13:31;9.63;;;2.67;;
75823;SDS011;64457;51.976;9.834;2024-03-25T01:15:58;8.47;;;2.90;;
75823;SDS011;64457;51.976;9.834;2024-03-25T01:18:25;9.93;;;2.50;;
75823;SDS011;64457;51.976;9.834;2024-03-25T01:20:52;10.53;;;2.97;;
75823;SDS011;64457;51.976;9.834;2024-03-25T01:23:20;8.70;;;2.47;;
75823;SDS011;64457;51.976;9.834;2024-03-25T01:25:47;7.77;;;2.97;;
75823;SDS011;64457;51.976;9.834;2024-03-25T01:28:13;8.63;;;2.60;;
75823;SDS011;64457;51.976;9.834;2024-03-25T01:30:42;6.90;;;2.90;;
75823;SDS011;64457;51.976;9.834;2024-03-25T01:33:09;11.33;;;2.83;;
75823;SDS011;64457;51.976;9.834;2024-03-25T01:35:36;7.83;;;2.63;;
75823;SDS011;64457;51.976;9.834;2024-03-25T01:38:03;4.70;;;2.40;;
75823;SDS011;64457;51.976;9.834;2024-03-25T01:40:30;13.37;;;2.67;;
75823;SDS011;64457;51.976;9.834;2024-03-25T01:43:00;6.23;;;2.37;;
75823;SDS011;64457;51.976;9.834;2024-03-25T01:45:31;8.10;;;2.40;;
75823;SDS011;64457;51.976;9.834;2024-03-25T01:48:02;5.67;;;1.80;;
75823;SDS011;64457;51.976;9.834;2024-03-25T01:50:34;5.63;;;1.90;;
75823;SDS011;64457;51.976;9.834;2024-03-25T01:53:05;9.57;;;2.53;;
75823;SDS011;64457;51.976;9.834;2024-03-25T01:55:33;4.40;;;1.80;;
75823;SDS011;64457;51.976;9.834;2024-03-25T01:58:01;5.63;;;1.97;;
75823;SDS011;64457;51.976;9.834;2024-03-25T02:00:29;4.30;;;2.07;;
75823;SDS011;64457;51.976;9.834;2024-03-25T02:02:55;4.63;;;2.30;;
75823;SDS011;64457;51.976;9.834;2024-03-25T02:05:25;5.30;;;2.07;;
75823;SDS011;64457;51.976;9.834;2024-03-25T02:07:52;5.17;;;2.30;;
75823;SDS011;64457;51.976;9.834;2024-03-25T02:10:20;4.53;;;2.10;;
75823;SDS011;64457;51.976;9.834;2024-03-25T02:12:47;3.70;;;2.10;;
75823;SDS011;64457;51.976;9.834;2024-03-25T02:15:15;4.63;;;2.20;;
75823;SDS011;64457;51.976;9.834;2024-03-25T02:17:43;8.60;;;1.87;;
75823;SDS011;64457;51.976;9.834;2024-03-25T02:20:12;5.50;;;2.07;;
75823;SDS011;64457;51.976;9.834;2024-03-25T02:22:42;9.83;;;2.50;;
75823;SDS011;64457;51.976;9.834;2024-03-25T02:25:10;8.53;;;2.03;;
75823;SDS011;64457;51.976;9.834;2024-03-25T02:27:38;7.63;;;1.83;;
75823;SDS011;64457;51.976;9.834;2024-03-25T02:30:06;8.80;;;2.37;;
75823;SDS011;64457;51.976;9.834;2024-03-25T02:32:34;6.20;;;1.80;;
75823;SDS011;64457;51.976;9.834;2024-03-25T02:35:03;4.80;;;1.73;;
75823;SDS011;64457;51.976;9.834;2024-03-25T02:37:32;5.17;;;2.30;;
75823;SDS011;64457;51.976;9.834;2024-03-25T02:40:01;3.30;;;1.97;;
75823;SDS011;64457;51.976;9.834;2024-03-25T02:42:28;4.77;;;2.17;;
75823;SDS011;64457;51.976;9.834;2024-03-25T02:44:57;5.33;;;1.90;;
75823;SDS011;64457;51.976;9.834;2024-03-25T02:47:24;3.47;;;1.77;;
75823;SDS011;64457;51.976;9.834;2024-03-25T02:49:52;2.67;;;2.00;;
75823;SDS011;64457;51.976;9.834;2024-03-25T02:52:18;3.57;;;1.90;;
75823;SDS011;64457;51.976;9.834;2024-03-25T02:54:46;5.77;;;2.40;;
75823;SDS011;64457;51.976;9.834;2024-03-25T02:57:13;4.90;;;1.80;;
75823;SDS011;64457;51.976;9.834;2024-03-25T02:59:40;5.83;;;1.70;;
75823;SDS011;64457;51.976;9.834;2024-03-25T03:02:08;2.00;;;1.50;;
75823;SDS011;64457;51.976;9.834;2024-03-25T03:04:36;1.50;;;1.30;;
75823;SDS011;64457;51.976;9.834;2024-03-25T03:07:02;2.63;;;1.33;;
75823;SDS011;64457;51.976;9.834;2024-03-25T03:09:31;3.93;;;1.73;;
75823;SDS011;64457;51.976;9.834;2024-03-25T03:11:57;1.70;;;1.60;;
75823;SDS011;64457;51.976;9.834;2024-03-25T03:14:24;4.07;;;1.60;;
75823;SDS011;64457;51.976;9.834;2024-03-25T03:16:51;5.43;;;2.03;;
75823;SDS011;64457;51.976;9.834;2024-03-25T03:19:21;3.57;;;2.23;;
75823;SDS011;64457;51.976;9.834;2024-03-25T03:21:47;4.93;;;1.90;;
75823;SDS011;64457;51.976;9.834;2024-03-25T03:24:15;2.43;;;1.60;;
75823;SDS011;64457;51.976;9.834;2024-03-25T03:26:41;3.60;;;1.50;;
75823;SDS011;64457;51.976;9.834;2024-03-25T03:29:09;4.87;;;2.00;;
75823;SDS011;64457;51.976;9.834;2024-03-25T03:31:35;3.80;;;2.53;;
75823;SDS011;64457;51.976;9.834;2024-03-25T03:34:03;7.33;;;2.00;;
75823;SDS011;64457;51.976;9.834;2024-03-25T03:36:31;5.63;;;2.00;;
75823;SDS011;64457;51.976;9.834;2024-03-25T03:38:58;4.20;;;1.87;;
75823;SDS011;64457;51.976;9.834;2024-03-25T03:41:25;3.90;;;2.03;;
75823;SDS011;64457;51.976;9.834;2024-03-25T03:43:52;4.00;;;2.13;;
75823;SDS011;64457;51.976;9.834;2024-03-25T03:46:19;16.90;;;3.03;;
75823;SDS011;64457;51.976;9.834;2024-03-25T03:48:46;7.90;;;2.83;;
75823;SDS011;64457;51.976;9.834;2024-03-25T03:51:13;10.77;;;3.30;;
75823;SDS011;64457;51.976;9.834;2024-03-25T03:53:42;5.10;;;2.77;;
75823;SDS011;64457;51.976;9.834;2024-03-25T03:56:08;11.47;;;3.83;;
75823;SDS011;64457;51.976;9.834;2024-03-25T03:58:36;10.00;;;2.47;;
75823;SDS011;64457;51.976;9.834;2024-03-25T04:01:02;4.67;;;2.47;;
75823;SDS011;64457;51.976;9.834;2024-03-25T04:03:30;11.37;;;3.53;;
75823;SDS011;64457;51.976;9.834;2024-03-25T04:05:56;8.23;;;2.73;;
75823;SDS011;64457;51.976;9.834;2024-03-25T04:08:24;7.77;;;3.00;;
75823;SDS011;64457;51.976;9.834;2024-03-25T04:10:51;10.00;;;4.43;;
75823;SDS011;64457;51.976;9.834;2024-03-25T04:13:19;24.83;;;3.93;;
75823;SDS011;64457;51.976;9.834;2024-03-25T04:15:46;8.23;;;3.50;;
75823;SDS011;64457;51.976;9.834;2024-03-25T04:18:13;5.43;;;3.10;;
75823;SDS011;64457;51.976;9.834;2024-03-25T04:20:40;6.73;;;3.80;;
75823;SDS011;64457;51.976;9.834;2024-03-25T04:23:09;6.97;;;3.43;;
75823;SDS011;64457;51.976;9.834;2024-03-25T04:25:35;9.20;;;3.30;;
75823;SDS011;64457;51.976;9.834;2024-03-25T04:28:05;12.13;;;3.80;;
75823;SDS011;64457;51.976;9.834;2024-03-25T04:30:32;8.60;;;4.37;;
75823;SDS011;64457;51.976;9.834;2024-03-25T04:32:59;8.27;;;2.73;;
75823;SDS011;64457;51.976;9.834;2024-03-25T04:35:26;8.60;;;2.77;;
75823;SDS011;64457;51.976;9.834;2024-03-25T04:37:53;16.07;;;3.30;;
75823;SDS011;64457;51.976;9.834;2024-03-25T04:40:20;10.33;;;3.43;;
75823;SDS011;64457;51.976;9.834;2024-03-25T04:42:46;9.10;;;2.50;;
75823;SDS011;64457;51.976;9.834;2024-03-25T04:45:14;6.47;;;2.50;;
75823;SDS011;64457;51.976;9.834;2024-03-25T04:47:41;10.60;;;3.53;;
75823;SDS011;64457;51.976;9.834;2024-03-25T04:50:07;12.37;;;4.10;;
75823;SDS011;64457;51.976;9.834;2024-03-25T04:52:35;8.63;;;3.60;;
75823;SDS011;64457;51.976;9.834;2024-03-25T04:55:01;12.80;;;3.60;;
75823;SDS011;64457;51.976;9.834;2024-03-25T04:57:28;16.97;;;4.13;;
75823;SDS011;64457;51.976;9.834;2024-03-25T04:59:55;9.40;;;4.10;;
75823;SDS011;64457;51.976;9.834;2024-03-25T05:02:23;16.00;;;4.23;;
75823;SDS011;64457;51.976;9.834;2024-03-25T05:04:49;18.30;;;3.93;;
75823;SDS011;64457;51.976;9.834;2024-03-25T05:07:15;14.57;;;4.23;;
75823;SDS011;64457;51.976;9.834;2024-03-25T05:09:42;18.97;;;4.40;;
75823;SDS011;64457;51.976;9.834;2024-03-25T05:12:08;11.90;;;3.80;;
75823;SDS011;64457;51.976;9.834;2024-03-25T05:14:35;13.23;;;3.70;;
75823;SDS011;64457;51.976;9.834;2024-03-25T05:17:02;20.00;;;4.20;;
75823;SDS011;64457;51.976;9.834;2024-03-25T05:19:30;10.60;;;3.53;;
75823;SDS011;64457;51.976;9.834;2024-03-25T05:21:56;11.50;;;3.90;;
75823;SDS011;64457;51.976;9.834;2024-03-25T05:24:23;13.60;;;4.30;;
75823;SDS011;64457;51.976;9.834;2024-03-25T05:26:49;12.40;;;4.40;;
75823;SDS011;64457;51.976;9.834;2024-03-25T05:29:16;19.30;;;4.67;;
75823;SDS011;64457;51.976;9.834;2024-03-25T05:31:56;11.70;;;3.80;;
75823;SDS011;64457;51.976;9.834;2024-03-25T05:34:24;11.80;;;3.40;;
75823;SDS011;64457;51.976;9.834;2024-03-25T05:36:53;13.97;;;4.40;;
75823;SDS011;64457;51.976;9.834;2024-03-25T05:39:20;16.53;;;4.43;;
75823;SDS011;64457;51.976;9.834;2024-03-25T05:41:47;13.93;;;3.77;;
75823;SDS011;64457;51.976;9.834;2024-03-25T05:44:13;7.80;;;3.43;;
75823;SDS011;64457;51.976;9.834;2024-03-25T05:46:40;18.30;;;3.73;;
75823;SDS011;64457;51.976;9.834;2024-03-25T05:49:07;9.73;;;3.33;;
75823;SDS011;64457;51.976;9.834;2024-03-25T05:51:33;14.23;;;4.03;;
75823;SDS011;64457;51.976;9.834;2024-03-25T05:54:01;10.37;;;3.30;;
75823;SDS011;64457;51.976;9.834;2024-03-25T05:56:28;7.13;;;3.00;;
75823;SDS011;64457;51.976;9.834;2024-03-25T05:58:55;12.90;;;3.10;;
75823;SDS011;64457;51.976;9.834;2024-03-25T06:01:22;15.90;;;3.87;;
75823;SDS011;64457;51.976;9.834;2024-03-25T06:03:49;11.53;;;3.57;;
75823;SDS011;64457;51.976;9.834;2024-03-25T06:06:15;13.10;;;3.67;;
75823;SDS011;64457;51.976;9.834;2024-03-25T06:08:42;13.13;;;3.50;;
75823;SDS011;64457;51.976;9.834;2024-03-25T06:11:10;8.13;;;3.20;;
75823;SDS011;64457;51.976;9.834;2024-03-25T06:13:36;10.37;;;3.30;;
75823;SDS011;64457;51.976;9.834;2024-03-25T06:16:03;11.67;;;3.33;;
75823;SDS011;64457;51.976;9.834;2024-03-25T06:18:30;9.20;;;3.60;;
75823;SDS011;64457;51.976;9.834;2024-03-25T06:20:56;15.03;;;4.20;;
75823;SDS011;64457;51.976;9.834;2024-03-25T06:23:23;9.77;;;3.50;;
75823;SDS011;64457;51.976;9.834;2024-03-25T06:25:51;14.07;;;4.17;;
75823;SDS011;64457;51.976;9.834;2024-03-25T06:28:20;10.70;;;3.90;;
75823;SDS011;64457;51.976;9.834;2024-03-25T06:30:47;10.20;;;4.77;;
75823;SDS011;64457;51.976;9.834;2024-03-25T06:33:33;13.30;;;3.53;;
75823;SDS011;64457;51.976;9.834;2024-03-25T06:36:18;10.03;;;3.50;;
75823;SDS011;64457;51.976;9.834;2024-03-25T06:38:45;14.83;;;3.80;;
75823;SDS011;64457;51.976;9.834;2024-03-25T06:41:12;8.63;;;3.67;;
75823;SDS011;64457;51.976;9.834;2024-03-25T06:43:40;12.87;;;3.77;;
75823;SDS011;64457;51.976;9.834;2024-03-25T06:46:07;11.23;;;3.30;;
75823;SDS011;64457;51.976;9.834;2024-03-25T06:48:33;12.27;;;3.37;;
75823;SDS011;64457;51.976;9.834;2024-03-25T06:51:00;8.50;;;3.20;;
75823;SDS011;64457;51.976;9.834;2024-03-25T06:53:27;14.00;;;3.40;;
75823;SDS011;64457;51.976;9.834;2024-03-25T06:55:55;11.80;;;3.23;;
75823;SDS011;64457;51.976;9.834;2024-03-25T06:58:22;8.40;;;2.93;;
75823;SDS011;64457;51.976;9.834;2024-03-25T07:00:51;10.00;;;2.97;;
75823;SDS011;64457;51.976;9.834;2024-03-25T07:03:19;10.83;;;3.87;;
75823;SDS011;64457;51.976;9.834;2024-03-25T07:05:47;11.93;;;3.10;;
75823;SDS011;64457;51.976;9.834;2024-03-25T07:08:15;9.20;;;3.50;;
75823;SDS011;64457;51.976;9.834;2024-03-25T07:10:42;10.63;;;3.87;;
75823;SDS011;64457;51.976;9.834;2024-03-25T07:13:10;10.27;;;3.97;;
75823;SDS011;64457;51.976;9.834;2024-03-25T07:15:37;10.80;;;4.40;;
75823;SDS011;64457;51.976;9.834;2024-03-25T07:18:05;11.50;;;3.90;;
75823;SDS011;64457;51.976;9.834;2024-03-25T07:20:32;10.97;;;3.87;;
75823;SDS011;64457;51.976;9.834;2024-03-25T07:22:59;9.57;;;4.10;;
75823;SDS011;64457;51.976;9.834;2024-03-25T07:25:25;7.33;;;3.07;;
75823;SDS011;64457;51.976;9.834;2024-03-25T07:27:52;9.30;;;3.63;;
75823;SDS011;64457;51.976;9.834;2024-03-25T07:30:19;12.27;;;3.90;;
75823;SDS011;64457;51.976;9.834;2024-03-25T07:32:45;9.77;;;3.47;;
75823;SDS011;64457;51.976;9.834;2024-03-25T07:35:13;11.20;;;2.80;;
75823;SDS011;64457;51.976;9.834;2024-03-25T07:37:40;6.90;;;2.97;;
75823;SDS011;64457;51.976;9.834;2024-03-25T07:40:07;11.17;;;3.60;;
75823;SDS011;64457;51.976;9.834;2024-03-25T07:42:35;8.80;;;2.97;;
75823;SDS011;64457;51.976;9.834;2024-03-25T07:45:01;6.40;;;3.30;;
75823;SDS011;64457;51.976;9.834;2024-03-25T07:47:28;10.60;;;3.40;;
75823;SDS011;64457;51.976;9.834;2024-03-25T07:49:55;9.07;;;3.60;;
75823;SDS011;64457;51.976;9.834;2024-03-25T07:52:23;13.17;;;2.47;;
75823;SDS011;64457;51.976;9.834;2024-03-25T07:54:49;12.67;;;3.60;;
75823;SDS011;64457;51.976;9.834;2024-03-25T07:57:15;7.50;;;3.00;;
75823;SDS011;64457;51.976;9.834;2024-03-25T07:59:42;9.83;;;3.20;;
75823;SDS011;64457;51.976;9.834;2024-03-25T08:02:09;12.70;;;2.70;;
75823;SDS011;64457;51.976;9.834;2024-03-25T08:04:35;8.53;;;2.53;;
75823;SDS011;64457;51.976;9.834;2024-03-25T08:07:02;6.37;;;2.50;;
75823;SDS011;64457;51.976;9.834;2024-03-25T08:09:30;10.20;;;2.37;;
75823;SDS011;64457;51.976;9.834;2024-03-25T08:11:57;6.53;;;2.20;;
75823;SDS011;64457;51.976;9.834;2024-03-25T08:14:24;7.90;;;2.97;;
75823;SDS011;64457;51.976;9.834;2024-03-25T08:16:50;9.43;;;2.37;;
75823;SDS011;64457;51.976;9.834;2024-03-25T08:19:17;8.93;;;2.40;;
75823;SDS011;64457;51.976;9.834;2024-03-25T08:21:43;14.67;;;2.53;;
75823;SDS011;64457;51.976;9.834;2024-03-25T08:24:10;6.63;;;2.10;;
75823;SDS011;64457;51.976;9.834;2024-03-25T08:26:38;8.13;;;2.33;;
75823;SDS011;64457;51.976;9.834;2024-03-25T08:29:04;8.87;;;2.30;;
75823;SDS011;64457;51.976;9.834;2024-03-25T08:31:31;6.60;;;2.07;;
75823;SDS011;64457;51.976;9.834;2024-03-25T08:33:57;7.07;;;2.20;;
75823;SDS011;64457;51.976;9.834;2024-03-25T08:36:24;11.13;;;3.00;;
75823;SDS011;64457;51.976;9.834;2024-03-25T08:38:50;10.60;;;2.33;;
75823;SDS011;64457;51.976;9.834;2024-03-25T08:41:16;15.27;;;3.00;;
75823;SDS011;64457;51.976;9.834;2024-03-25T08:43:45;5.60;;;2.30;;
75823;SDS011;64457;51.976;9.834;2024-03-25T08:46:12;9.63;;;2.00;;
75823;SDS011;64457;51.976;9.834;2024-03-25T08:48:38;16.83;;;2.27;;
75823;SDS011;64457;51.976;9.834;2024-03-25T08:51:05;4.40;;;1.67;;
75823;SDS011;64457;51.976;9.834;2024-03-25T08:53:31;17.13;;;2.37;;
75823;SDS011;64457;51.976;9.834;2024-03-25T08:55:58;14.37;;;3.10;;
75823;SDS011;64457;51.976;9.834;2024-03-25T08:58:24;8.83;;;2.27;;
75823;SDS011;64457;51.976;9.834;2024-03-25T09:00:52;7.80;;;2.00;;
75823;SDS011;64457;51.976;9.834;2024-03-25T09:03:18;10.07;;;2.13;;
75823;SDS011;64457;51.976;9.834;2024-03-25T09:05:45;7.70;;;2.33;;
75823;SDS011;64457;51.976;9.834;2024-03-25T09:08:12;9.00;;;1.80;;
75823;SDS011;64457;51.976;9.834;2024-03-25T09:10:39;5.07;;;1.80;;
75823;SDS011;64457;51.976;9.834;2024-03-25T09:13:27;5.37;;;1.90;;
75823;SDS011;64457;51.976;9.834;2024-03-25T09:15:56;5.17;;;1.50;;
75823;SDS011;64457;51.976;9.834;2024-03-25T09:18:23;8.23;;;2.57;;
75823;SDS011;64457;51.976;9.834;2024-03-25T09:20:49;8.40;;;1.77;;
75823;SDS011;64457;51.976;9.834;2024-03-25T09:23:16;5.10;;;1.77;;
75823;SDS011;64457;51.976;9.834;2024-03-25T09:25:52;5.67;;;1.67;;
75823;SDS011;64457;51.976;9.834;2024-03-25T09:28:19;8.03;;;2.00;;
75823;SDS011;64457;51.976;9.834;2024-03-25T09:30:45;10.27;;;2.20;;
75823;SDS011;64457;51.976;9.834;2024-03-25T09:33:15;8.43;;;1.73;;
75823;SDS011;64457;51.976;9.834;2024-03-25T09:35:42;9.70;;;2.17;;
75823;SDS011;64457;51.976;9.834;2024-03-25T09:38:09;7.30;;;1.70;;
75823;SDS011;64457;51.976;9.834;2024-03-25T09:40:35;5.63;;;2.20;;
75823;SDS011;64457;51.976;9.834;2024-03-25T09:43:06;10.47;;;2.17;;
75823;SDS011;64457;51.976;9.834;2024-03-25T09:45:38;6.27;;;2.33;;
75823;SDS011;64457;51.976;9.834;2024-03-25T09:48:06;6.53;;;1.70;;
75823;SDS011;64457;51.976;9.834;2024-03-25T09:50:35;4.10;;;1.57;;
75823;SDS011;64457;51.976;9.834;2024-03-25T09:53:04;8.33;;;1.90;;
75823;SDS011;64457;51.976;9.834;2024-03-25T09:55:30;4.20;;;1.20;;
75823;SDS011;64457;51.976;9.834;2024-03-25T09:57:57;4.57;;;1.37;;
75823;SDS011;64457;51.976;9.834;2024-03-25T10:00:25;6.90;;;1.40;;
75823;SDS011;64457;51.976;9.834;2024-03-25T10:02:54;4.70;;;1.60;;
75823;SDS011;64457;51.976;9.834;2024-03-25T10:05:20;11.07;;;1.73;;
75823;SDS011;64457;51.976;9.834;2024-03-25T10:07:49;6.73;;;1.47;;
75823;SDS011;64457;51.976;9.834;2024-03-25T10:10:18;5.83;;;1.97;;
75823;SDS011;64457;51.976;9.834;2024-03-25T10:12:45;6.57;;;1.80;;
75823;SDS011;64457;51.976;9.834;2024-03-25T10:15:15;5.40;;;1.50;;
75823;SDS011;64457;51.976;9.834;2024-03-25T10:17:42;4.87;;;1.97;;
75823;SDS011;64457;51.976;9.834;2024-03-25T10:20:13;7.17;;;1.70;;
75823;SDS011;64457;51.976;9.834;2024-03-25T10:22:43;6.20;;;2.27;;
75823;SDS011;64457;51.976;9.834;2024-03-25T10:25:25;4.83;;;1.60;;
75823;SDS011;64457;51.976;9.834;2024-03-25T10:27:53;14.70;;;2.10;;
75823;SDS011;64457;51.976;9.834;2024-03-25T10:30:21;4.20;;;1.50;;
75823;SDS011;64457;51.976;9.834;2024-03-25T10:32:58;5.00;;;1.57;;
75823;SDS011;64457;51.976;9.834;2024-03-25T10:35:28;6.33;;;1.97;;
75823;SDS011;64457;51.976;9.834;2024-03-25T10:37:57;5.47;;;1.90;;
75823;SDS011;64457;51.976;9.834;2024-03-25T10:40:27;4.13;;;1.67;;
75823;SDS011;64457;51.976;9.834;2024-03-25T10:42:57;5.93;;;1.50;;
75823;SDS011;64457;51.976;9.834;2024-03-25T10:45:30;4.40;;;1.67;;
75823;SDS011;64457;51.976;9.834;2024-03-25T10:47:57;3.20;;;1.50;;
75823;SDS011;64457;51.976;9.834;2024-03-25T10:50:28;6.63;;;2.37;;
75823;SDS011;64457;51.976;9.834;2024-03-25T10:52:56;8.53;;;1.80;;
75823;SDS011;64457;51.976;9.834;2024-03-25T10:55:26;4.70;;;1.50;;
75823;SDS011;64457;51.976;9.834;2024-03-25T10:57:54;4.50;;;1.40;;
75823;SDS011;64457;51.976;9.834;2024-03-25T11:00:21;4.13;;;1.33;;
75823;SDS011;64457;51.976;9.834;2024-03-25T11:02:48;5.00;;;1.50;;
75823;SDS011;64457;51.976;9.834;2024-03-25T11:05:16;5.50;;;1.93;;
75823;SDS011;64457;51.976;9.834;2024-03-25T11:07:43;6.83;;;1.83;;
75823;SDS011;64457;51.976;9.834;2024-03-25T11:10:10;10.00;;;2.57;;
75823;SDS011;64457;51.976;9.834;2024-03-25T11:12:40;3.67;;;1.80;;
75823;SDS011;64457;51.976;9.834;2024-03-25T11:15:07;5.87;;;2.00;;
75823;SDS011;64457;51.976;9.834;2024-03-25T11:17:35;5.37;;;1.77;;
75823;SDS011;64457;51.976;9.834;2024-03-25T11:20:09;5.17;;;1.60;;
75823;SDS011;64457;51.976;9.834;2024-03-25T11:22:46;4.90;;;1.73;;
75823;SDS011;64457;51.976;9.834;2024-03-25T11:25:14;6.43;;;2.10;;
75823;SDS011;64457;51.976;9.834;2024-03-25T11:27:42;3.80;;;1.60;;
75823;SDS011;64457;51.976;9.834;2024-03-25T11:30:10;3.70;;;1.33;;
75823;SDS011;64457;51.976;9.834;2024-03-25T11:32:47;5.90;;;1.83;;
75823;SDS011;64457;51.976;9.834;2024-03-25T11:35:17;5.03;;;1.60;;
75823;SDS011;64457;51.976;9.834;2024-03-25T11:37:44;4.30;;;1.50;;
75823;SDS011;64457;51.976;9.834;2024-03-25T11:40:11;6.00;;;1.40;;
75823;SDS011;64457;51.976;9.834;2024-03-25T11:42:39;4.33;;;1.40;;
75823;SDS011;64457;51.976;9.834;2024-03-25T11:45:13;5.03;;;1.73;;
75823;SDS011;64457;51.976;9.834;2024-03-25T11:47:41;7.30;;;2.20;;
75823;SDS011;64457;51.976;9.834;2024-03-25T11:50:09;4.07;;;1.80;;
75823;SDS011;64457;51.976;9.834;2024-03-25T11:52:38;8.70;;;1.87;;
75823;SDS011;64457;51.976;9.834;2024-03-25T11:55:04;5.20;;;1.30;;
75823;SDS011;64457;51.976;9.834;2024-03-25T11:57:33;6.57;;;1.43;;
75823;SDS011;64457;51.976;9.834;2024-03-25T12:00:02;5.07;;;1.43;;
75823;SDS011;64457;51.976;9.834;2024-03-25T12:02:29;6.70;;;1.53;;
75823;SDS011;64457;51.976;9.834;2024-03-25T12:04:56;6.57;;;1.50;;
75823;SDS011;64457;51.976;9.834;2024-03-25T12:07:22;5.63;;;1.20;;
75823;SDS011;64457;51.976;9.834;2024-03-25T12:09:49;1.83;;;1.37;;
75823;SDS011;64457;51.976;9.834;2024-03-25T12:12:34;5.27;;;1.20;;
75823;SDS011;64457;51.976;9.834;2024-03-25T12:15:02;2.67;;;1.00;;
75823;SDS011;64457;51.976;9.834;2024-03-25T12:17:29;6.00;;;1.60;;
75823;SDS011;64457;51.976;9.834;2024-03-25T12:20:01;8.10;;;1.30;;
75823;SDS011;64457;51.976;9.834;2024-03-25T12:22:30;6.53;;;1.30;;
75823;SDS011;64457;51.976;9.834;2024-03-25T12:24:57;4.17;;;1.50;;
75823;SDS011;64457;51.976;9.834;2024-03-25T12:27:24;4.40;;;1.20;;
75823;SDS011;64457;51.976;9.834;2024-03-25T12:29:57;3.53;;;1.20;;
75823;SDS011;64457;51.976;9.834;2024-03-25T12:32:36;8.13;;;1.40;;
75823;SDS011;64457;51.976;9.834;2024-03-25T12:35:06;7.93;;;1.57;;
75823;SDS011;64457;51.976;9.834;2024-03-25T12:37:34;4.90;;;1.20;;
75823;SDS011;64457;51.976;9.834;2024-03-25T12:40:02;3.47;;;1.20;;
75823;SDS011;64457;51.976;9.834;2024-03-25T12:42:31;3.30;;;1.40;;
75823;SDS011;64457;51.976;9.834;2024-03-25T12:44:58;3.07;;;1.40;;
75823;SDS011;64457;51.976;9.834;2024-03-25T12:47:24;2.30;;;1.00;;
75823;SDS011;64457;51.976;9.834;2024-03-25T12:49:53;1.93;;;0.80;;
75823;SDS011;64457;51.976;9.834;2024-03-25T12:52:19;2.43;;;1.43;;
75823;SDS011;64457;51.976;9.834;2024-03-25T12:54:46;1.83;;;1.17;;
75823;SDS011;64457;51.976;9.834;2024-03-25T12:57:12;5.60;;;1.27;;
75823;SDS011;64457;51.976;9.834;2024-03-25T12:59:39;2.70;;;1.10;;
75823;SDS011;64457;51.976;9.834;2024-03-25T13:02:09;2.43;;;1.00;;
75823;SDS011;64457;51.976;9.834;2024-03-25T13:04:37;8.53;;;1.50;;
75823;SDS011;64457;51.976;9.834;2024-03-25T13:07:05;3.10;;;1.20;;
75823;SDS011;64457;51.976;9.834;2024-03-25T13:09:32;2.83;;;1.10;;
75823;SDS011;64457;51.976;9.834;2024-03-25T13:11:59;5.27;;;1.43;;
75823;SDS011;64457;51.976;9.834;2024-03-25T13:14:25;3.60;;;1.30;;
75823;SDS011;64457;51.976;9.834;2024-03-25T13:16:52;1.73;;;1.33;;
75823;SDS011;64457;51.976;9.834;2024-03-25T13:19:18;3.90;;;1.10;;
75823;SDS011;64457;51.976;9.834;2024-03-25T13:21:45;4.03;;;1.30;;
75823;SDS011;64457;51.976;9.834;2024-03-25T13:24:15;8.90;;;1.40;;
75823;SDS011;64457;51.976;9.834;2024-03-25T13:26:42;3.40;;;1.40;;
75823;SDS011;64457;51.976;9.834;2024-03-25T13:29:08;4.77;;;1.53;;
75823;SDS011;64457;51.976;9.834;2024-03-25T13:31:35;2.90;;;0.97;;
75823;SDS011;64457;51.976;9.834;2024-03-25T13:34:02;3.03;;;1.10;;
75823;SDS011;64457;51.976;9.834;2024-03-25T13:36:28;5.10;;;1.40;;
75823;SDS011;64457;51.976;9.834;2024-03-25T13:38:58;3.33;;;1.50;;
75823;SDS011;64457;51.976;9.834;2024-03-25T13:41:26;7.53;;;1.63;;
75823;SDS011;64457;51.976;9.834;2024-03-25T13:43:52;2.97;;;1.30;;
75823;SDS011;64457;51.976;9.834;2024-03-25T13:46:19;2.80;;;1.10;;
75823;SDS011;64457;51.976;9.834;2024-03-25T13:48:46;4.90;;;1.30;;
75823;SDS011;64457;51.976;9.834;2024-03-25T13:51:13;1.70;;;1.13;;
75823;SDS011;64457;51.976;9.834;2024-03-25T13:53:40;1.37;;;1.10;;
75823;SDS011;64457;51.976;9.834;2024-03-25T13:56:06;3.70;;;1.27;;
75823;SDS011;64457;51.976;9.834;2024-03-25T13:58:34;4.63;;;1.20;;
75823;SDS011;64457;51.976;9.834;2024-03-25T14:01:01;2.00;;;1.10;;
75823;SDS011;64457;51.976;9.834;2024-03-25T14:03:27;9.37;;;1.53;;
75823;SDS011;64457;51.976;9.834;2024-03-25T14:05:54;2.67;;;1.20;;
75823;SDS011;64457;51.976;9.834;2024-03-25T14:08:20;2.80;;;1.40;;
75823;SDS011;64457;51.976;9.834;2024-03-25T14:10:56;4.30;;;1.33;;
75823;SDS011;64457;51.976;9.834;2024-03-25T14:13:25;5.20;;;1.60;;
75823;SDS011;64457;51.976;9.834;2024-03-25T14:15:56;5.10;;;1.50;;
75823;SDS011;64457;51.976;9.834;2024-03-25T14:18:22;4.00;;;1.33;;
75823;SDS011;64457;51.976;9.834;2024-03-25T14:20:50;4.30;;;1.40;;
75823;SDS011;64457;51.976;9.834;2024-03-25T14:23:17;3.07;;;1.50;;
75823;SDS011;64457;51.976;9.834;2024-03-25T14:25:44;5.23;;;1.53;;
75823;SDS011;64457;51.976;9.834;2024-03-25T14:28:10;5.33;;;1.40;;
75823;SDS011;64457;51.976;9.834;2024-03-25T14:30:37;3.10;;;1.30;;
75823;SDS011;64457;51.976;9.834;2024-03-25T14:33:05;2.00;;;1.00;;
75823;SDS011;64457;51.976;9.834;2024-03-25T14:35:31;3.13;;;1.30;;
75823;SDS011;64457;51.976;9.834;2024-03-25T14:37:57;4.27;;;1.40;;
75823;SDS011;64457;51.976;9.834;2024-03-25T14:40:24;5.20;;;1.20;;
75823;SDS011;64457;51.976;9.834;2024-03-25T14:42:50;4.63;;;1.50;;
75823;SDS011;64457;51.976;9.834;2024-03-25T14:45:17;4.53;;;1.30;;
75823;SDS011;64457;51.976;9.834;2024-03-25T14:47:48;3.30;;;1.33;;
75823;SDS011;64457;51.976;9.834;2024-03-25T14:50:16;4.90;;;1.53;;